createdAt,value
2023-03-11T00:01:08.287Z,97863.13
2023-03-11T00:03:36.293Z,97865.91
2023-03-11T00:06:06.438Z,97873.47
2023-03-11T00:08:34.397Z,97880.72
2023-03-11T00:11:02.423Z,97892.97
2023-03-11T00:13:30.609Z,97868.53
2023-03-11T00:15:59.796Z,97859.38
2023-03-11T00:18:30.152Z,97860.41
2023-03-11T00:20:58.623Z,97861.06
2023-03-11T00:23:28.014Z,97856.59
2023-03-11T00:25:56.002Z,97862.06
2023-03-11T00:28:26.118Z,97853.41
2023-03-11T00:30:54.165Z,97854.44
2023-03-11T00:33:22.188Z,97856.66
2023-03-11T00:35:51.160Z,97850.72
2023-03-11T00:38:19.208Z,97836.63
2023-03-11T00:40:49.088Z,97841.00
2023-03-11T00:43:17.187Z,97848.31
2023-03-11T00:45:45.251Z,97839.25
2023-03-11T00:48:13.237Z,97840.91
2023-03-11T00:50:41.524Z,97835.47
2023-03-11T00:53:09.498Z,97840.34
2023-03-11T00:55:37.521Z,97830.03
2023-03-11T00:58:07.421Z,97826.16
2023-03-11T01:00:35.628Z,97824.06
2023-03-11T01:03:03.703Z,97815.41
2023-03-11T01:05:32.372Z,97811.00
2023-03-11T01:08:00.434Z,97820.50
2023-03-11T01:10:28.616Z,97813.69
2023-03-11T01:12:56.608Z,97811.00
2023-03-11T01:15:27.572Z,97804.16
2023-03-11T01:17:55.603Z,97809.59
2023-03-11T01:20:23.756Z,97796.84
2023-03-11T01:22:51.772Z,97792.97
2023-03-11T01:25:20.439Z,97785.38
2023-03-11T01:27:48.417Z,97797.28
2023-03-11T01:30:17.542Z,97782.06
2023-03-11T01:32:46.955Z,97788.00
2023-03-11T01:35:15.299Z,97760.84
2023-03-11T01:37:43.274Z,97762.56
2023-03-11T01:40:15.257Z,97758.38
2023-03-11T01:42:43.198Z,97754.00
2023-03-11T01:45:50.114Z,97761.31
2023-03-11T01:48:19.425Z,97758.53
2023-03-11T01:50:49.720Z,97751.47
2023-03-11T01:53:17.740Z,97746.56
2023-03-11T01:55:45.942Z,97740.06
2023-03-11T01:58:17.172Z,97743.75
2023-03-11T02:00:45.167Z,97724.22
2023-03-11T02:03:15.685Z,97731.19
2023-03-11T02:05:45.144Z,97724.09
2023-03-11T02:08:13.099Z,97723.75
2023-03-11T02:10:41.298Z,97726.19
2023-03-11T02:13:09.292Z,97720.78
2023-03-11T02:15:39.576Z,97714.34
2023-03-11T02:18:08.613Z,97711.88
2023-03-11T02:20:41.993Z,97707.19
2023-03-11T02:23:11.328Z,97705.53
2023-03-11T02:25:43.061Z,97697.53
2023-03-11T02:28:13.739Z,97694.25
2023-03-11T02:30:42.247Z,97688.59
2023-03-11T02:33:10.497Z,97695.69
2023-03-11T02:35:38.550Z,97687.81
2023-03-11T02:38:06.513Z,97687.31
2023-03-11T02:40:53.137Z,97679.31
2023-03-11T02:43:24.700Z,97684.72
2023-03-11T02:45:52.687Z,97682.81
2023-03-11T02:48:20.689Z,97683.03
2023-03-11T02:50:48.702Z,97681.69
2023-03-11T02:53:16.642Z,97679.84
2023-03-11T02:55:44.576Z,97673.41
2023-03-11T02:58:12.559Z,97674.78
2023-03-11T03:00:41.963Z,97678.78
2023-03-11T03:03:10.691Z,97678.22
2023-03-11T03:05:38.636Z,97674.94
2023-03-11T03:08:06.830Z,97670.59
2023-03-11T03:10:34.846Z,97664.53
2023-03-11T03:13:02.846Z,97659.13
2023-03-11T03:15:30.887Z,97661.31
2023-03-11T03:18:00.164Z,97660.28
2023-03-11T03:20:28.235Z,97667.31
2023-03-11T03:22:56.255Z,97670.28
2023-03-11T03:25:24.242Z,97668.84
2023-03-11T03:27:52.196Z,97664.94
2023-03-11T03:30:20.293Z,97657.59
2023-03-11T03:32:48.336Z,97666.59
2023-03-11T03:35:17.900Z,97661.66
2023-03-11T03:37:45.909Z,97661.19
2023-03-11T03:40:14.565Z,97652.63
2023-03-11T03:42:42.566Z,97642.41
2023-03-11T03:45:11.918Z,97638.06
2023-03-11T03:47:40.009Z,97628.41
2023-03-11T03:50:09.324Z,97634.03
2023-03-11T03:52:38.724Z,97636.19
2023-03-11T03:55:07.161Z,97641.38
2023-03-11T03:57:35.109Z,97638.72
2023-03-11T04:00:04.394Z,97639.06
2023-03-11T04:02:32.373Z,97643.09
2023-03-11T04:05:00.344Z,97651.44
2023-03-11T04:07:28.371Z,97657.69
2023-03-11T04:09:59.105Z,97679.13
2023-03-11T04:12:27.087Z,97680.22
2023-03-11T04:14:55.077Z,97679.63
2023-03-11T04:17:23.033Z,97668.22
2023-03-11T04:19:51.034Z,97670.50
2023-03-11T04:22:18.962Z,97680.63
2023-03-11T04:24:47.190Z,97688.63
2023-03-11T04:27:16.543Z,97688.38
2023-03-11T04:29:44.536Z,97688.47
2023-03-11T04:32:12.546Z,97684.38
2023-03-11T04:34:40.842Z,97683.19
2023-03-11T04:37:08.817Z,97691.81
2023-03-11T04:39:36.809Z,97709.63
2023-03-11T04:42:04.875Z,97710.66
2023-03-11T04:44:36.076Z,97713.28
2023-03-11T04:47:04.004Z,97716.53
2023-03-11T04:49:31.971Z,97721.66
2023-03-11T04:51:59.982Z,97714.66
2023-03-11T04:54:27.937Z,97716.28
2023-03-11T04:56:55.904Z,97720.63
2023-03-11T04:59:23.845Z,97721.78
2023-03-11T05:01:53.576Z,97731.25
2023-03-11T05:04:21.576Z,97731.25
2023-03-11T05:06:51.236Z,97734.03
2023-03-11T05:09:19.219Z,97735.22
2023-03-11T05:11:47.185Z,97733.09
2023-03-11T05:14:15.168Z,97734.84
2023-03-11T05:16:43.160Z,97747.72
2023-03-11T05:19:26.368Z,97749.41
2023-03-11T05:21:54.385Z,97761.38
2023-03-11T05:24:22.372Z,97766.94
2023-03-11T05:26:50.398Z,97770.94
2023-03-11T05:29:18.463Z,97773.91
2023-03-11T05:31:47.002Z,97773.81
2023-03-11T05:34:16.731Z,97783.38
2023-03-11T05:36:44.668Z,97782.84
2023-03-11T05:39:12.684Z,97786.44
2023-03-11T05:41:40.678Z,97794.16
2023-03-11T05:44:08.648Z,97793.44
2023-03-11T05:46:36.668Z,97800.06
2023-03-11T05:49:04.670Z,97801.53
2023-03-11T05:51:34.219Z,97811.78
2023-03-11T05:54:02.146Z,97815.94
2023-03-11T05:56:30.136Z,97824.03
2023-03-11T05:58:58.672Z,97818.47
2023-03-11T06:01:26.599Z,97810.13
2023-03-11T06:03:54.586Z,97801.16
2023-03-11T06:06:23.922Z,97810.44
2023-03-11T06:08:53.177Z,97809.06
2023-03-11T06:11:21.143Z,97805.69
2023-03-11T06:13:49.068Z,97799.72
2023-03-11T06:16:17.067Z,97812.88
2023-03-11T06:18:45.073Z,97810.56
2023-03-11T06:21:14.727Z,97813.03
2023-03-11T06:23:42.656Z,97813.44
2023-03-11T06:26:13.060Z,97824.00
2023-03-11T06:28:41.005Z,97830.63
2023-03-11T06:31:09.212Z,97829.78
2023-03-11T06:33:37.228Z,97848.72
2023-03-11T06:36:05.919Z,97852.59
2023-03-11T06:38:36.275Z,97850.78
2023-03-11T06:41:06.021Z,97870.19
2023-03-11T06:43:35.428Z,97860.91
2023-03-11T06:46:03.575Z,97870.75
2023-03-11T06:48:31.597Z,97869.56
2023-03-11T06:51:00.073Z,97872.84
2023-03-11T06:53:28.081Z,97869.19
2023-03-11T06:56:00.666Z,97875.91
2023-03-11T06:58:28.684Z,97878.69
2023-03-11T07:01:01.766Z,97862.78
2023-03-11T07:03:29.770Z,97866.66
2023-03-11T07:05:58.096Z,97866.00
2023-03-11T07:08:26.332Z,97849.25
2023-03-11T07:11:04.503Z,97862.09
2023-03-11T07:13:32.472Z,97859.25
2023-03-11T07:16:05.853Z,97859.56
2023-03-11T07:18:33.844Z,97869.72
2023-03-11T07:21:02.730Z,97856.63
2023-03-11T07:23:30.694Z,97861.09
2023-03-11T07:25:58.647Z,97867.00
2023-03-11T07:28:26.961Z,97869.72
2023-03-11T07:30:55.029Z,97861.38
2023-03-11T07:33:24.836Z,97867.03
2023-03-11T07:35:52.940Z,97863.56
2023-03-11T07:38:21.644Z,97844.41
2023-03-11T07:40:49.716Z,97846.28
2023-03-11T07:43:17.667Z,97845.19
2023-03-11T07:45:45.681Z,97843.19
2023-03-11T07:48:13.617Z,97844.59
2023-03-11T07:50:42.996Z,97833.75
2023-03-11T07:53:10.957Z,97821.63
2023-03-11T07:55:38.883Z,97822.84
2023-03-11T07:58:07.090Z,97808.88
2023-03-11T08:00:35.030Z,97805.31
2023-03-11T08:03:02.975Z,97805.47
2023-03-11T08:05:34.639Z,97791.28
2023-03-11T08:08:04.221Z,97785.41
2023-03-11T08:10:32.324Z,97790.38
2023-03-11T08:13:00.260Z,97793.19
2023-03-11T08:15:28.253Z,97791.59
2023-03-11T08:17:58.989Z,97784.97
2023-03-11T08:20:27.014Z,97787.44
2023-03-11T08:22:58.238Z,97783.44
2023-03-11T08:25:29.358Z,97785.38
2023-03-11T08:27:57.408Z,97788.38
2023-03-11T08:30:25.562Z,97790.25
2023-03-11T08:32:53.575Z,97787.41
2023-03-11T08:35:21.774Z,97787.00
2023-03-11T08:37:49.833Z,97796.72
2023-03-11T08:40:17.898Z,97780.31
2023-03-11T08:42:47.240Z,97777.09
2023-03-11T08:45:15.217Z,97788.03
2023-03-11T08:47:43.205Z,97778.03
2023-03-11T08:50:14.225Z,97773.34
2023-03-11T08:52:43.540Z,97776.94
2023-03-11T08:55:13.971Z,97772.00
2023-03-11T08:57:42.428Z,97773.06
2023-03-11T09:00:13.685Z,97762.22
2023-03-11T09:02:41.802Z,97761.63
2023-03-11T09:05:10.560Z,97766.56
2023-03-11T09:07:38.539Z,97759.19
2023-03-11T09:10:06.717Z,97752.38
2023-03-11T09:12:34.691Z,97749.44
2023-03-11T09:15:02.656Z,97740.47
2023-03-11T09:17:32.320Z,97741.59
2023-03-11T09:20:00.333Z,97735.00
2023-03-11T09:22:28.362Z,97732.63
2023-03-11T09:24:56.390Z,97739.66
2023-03-11T09:27:24.402Z,97732.41
2023-03-11T09:29:52.365Z,97736.84
2023-03-11T09:32:20.355Z,97724.13
2023-03-11T09:34:49.715Z,97731.56
2023-03-11T09:37:17.707Z,97726.69
2023-03-11T09:39:45.699Z,97720.81
2023-03-11T09:42:18.533Z,97716.09
2023-03-11T09:44:47.036Z,97716.19
2023-03-11T09:47:32.594Z,97712.28
2023-03-11T09:50:22.597Z,97702.94
2023-03-11T09:52:57.722Z,97696.72
2023-03-11T09:55:32.884Z,97698.06
2023-03-11T09:58:03.053Z,97706.22
2023-03-11T10:00:31.026Z,97705.22
2023-03-11T10:02:59.011Z,97705.88
2023-03-11T10:05:29.321Z,97692.00
2023-03-11T10:08:00.657Z,97698.22
2023-03-11T10:10:30.070Z,97686.78
2023-03-11T10:13:00.991Z,97688.66
2023-03-11T10:15:37.698Z,97683.16
2023-03-11T10:18:14.246Z,97690.06
2023-03-11T10:20:48.808Z,97681.28
2023-03-11T10:23:23.304Z,97681.75
2023-03-11T10:25:56.164Z,97683.06
2023-03-11T10:28:25.409Z,97674.81
2023-03-11T10:30:54.554Z,97669.56
2023-03-11T10:33:25.134Z,97677.09
2023-03-11T10:35:55.624Z,97677.69
2023-03-11T10:38:24.535Z,97670.00
2023-03-11T10:40:53.059Z,97667.34
2023-03-11T10:43:22.950Z,97665.22
2023-03-11T10:45:51.316Z,97649.63
2023-03-11T10:48:20.444Z,97641.00
2023-03-11T10:50:57.125Z,97655.22
2023-03-11T10:53:25.109Z,97656.19
2023-03-11T10:55:53.931Z,97647.56
2023-03-11T10:58:23.711Z,97641.34
2023-03-11T11:01:05.235Z,97651.00
2023-03-11T11:03:33.317Z,97647.78
2023-03-11T11:06:04.402Z,97637.28
2023-03-11T11:08:32.423Z,97634.16
2023-03-11T11:11:00.737Z,97634.94
2023-03-11T11:13:30.288Z,97627.41
2023-03-11T11:16:00.285Z,97632.72
2023-03-11T11:18:30.421Z,97626.84
2023-03-11T11:21:05.613Z,97635.31
2023-03-11T11:23:36.046Z,97622.16
2023-03-11T11:26:05.507Z,97632.84
2023-03-11T11:28:33.746Z,97638.91
2023-03-11T11:31:02.449Z,97630.09
2023-03-11T11:33:31.175Z,97635.41
2023-03-11T11:36:00.393Z,97633.88
2023-03-11T11:38:30.221Z,97644.34
2023-03-11T11:40:59.671Z,97633.22
2023-03-11T11:43:43.908Z,97629.75
2023-03-11T11:46:16.482Z,97623.56
2023-03-11T11:48:48.472Z,97621.91
2023-03-11T11:51:19.569Z,97626.13
2023-03-11T11:53:51.312Z,97616.53
2023-03-11T11:56:19.240Z,97621.47
2023-03-11T11:58:47.232Z,97615.44
2023-03-11T12:01:16.492Z,97618.69
2023-03-11T12:04:18.598Z,97614.75
2023-03-11T12:06:49.026Z,97631.22
2023-03-11T12:09:24.409Z,97625.00
2023-03-11T12:11:53.831Z,97627.69
2023-03-11T12:14:23.156Z,97631.63
2023-03-11T12:16:53.887Z,97637.56
2023-03-11T12:19:27.446Z,97626.00
2023-03-11T12:22:07.184Z,97642.44
2023-03-11T12:24:51.528Z,97640.38
2023-03-11T12:27:22.506Z,97637.44
2023-03-11T12:29:51.722Z,97656.53
2023-03-11T12:32:23.188Z,97652.88
2023-03-11T12:34:51.188Z,97648.91
2023-03-11T12:37:19.797Z,97649.97
2023-03-11T12:39:49.139Z,97656.13
2023-03-11T12:42:18.654Z,97644.88
2023-03-11T12:44:46.857Z,97645.66
2023-03-11T12:47:35.244Z,97653.25
2023-03-11T12:50:39.470Z,97656.34
2023-03-11T12:53:07.392Z,97651.38
2023-03-11T12:55:37.374Z,97659.94
2023-03-11T12:58:30.908Z,97650.69
2023-03-11T13:01:15.812Z,97655.63
2023-03-11T13:03:49.798Z,97655.81
2023-03-11T13:06:25.478Z,97654.53
2023-03-11T13:08:54.771Z,97661.06
2023-03-11T13:11:37.703Z,97665.72
2023-03-11T13:14:38.557Z,97651.91
2023-03-11T13:17:25.483Z,97661.22
2023-03-11T13:19:54.957Z,97665.47
2023-03-11T13:23:16.181Z,97669.88
2023-03-11T13:25:44.269Z,97655.50
2023-03-11T13:28:35.795Z,97668.44
2023-03-11T13:31:22.858Z,97658.28
2023-03-11T13:33:52.441Z,97654.94
2023-03-11T13:36:33.716Z,97655.84
2023-03-11T13:39:49.203Z,97660.06
2023-03-11T13:42:21.237Z,97661.66
2023-03-11T13:44:50.575Z,97654.47
2023-03-11T13:47:19.013Z,97660.00
2023-03-11T13:49:47.997Z,97663.50
2023-03-11T13:52:16.789Z,97671.69
2023-03-11T13:54:46.744Z,97672.81
2023-03-11T13:57:25.822Z,97663.34
2023-03-11T13:59:55.618Z,97680.09
2023-03-11T14:02:25.121Z,97674.69
2023-03-11T14:04:54.421Z,97677.88
2023-03-11T14:07:26.251Z,97675.84
2023-03-11T14:10:21.720Z,97682.63
2023-03-11T14:12:49.666Z,97690.25
2023-03-11T14:15:21.622Z,97687.31
2023-03-11T14:17:49.549Z,97687.34
2023-03-11T14:20:18.337Z,97686.00
2023-03-11T14:22:47.144Z,97686.94
2023-03-11T14:25:19.665Z,97676.59
2023-03-11T14:27:54.254Z,97678.88
2023-03-11T14:30:25.766Z,97691.97
2023-03-11T14:33:00.936Z,97687.13
2023-03-11T14:35:29.041Z,97699.41
2023-03-11T14:37:56.998Z,97698.06
2023-03-11T14:40:29.450Z,97706.50
2023-03-11T14:42:58.439Z,97714.94
2023-03-11T14:45:29.837Z,97707.88
2023-03-11T14:47:59.423Z,97717.63
2023-03-11T14:50:28.263Z,97712.22
2023-03-11T14:52:57.767Z,97724.47
2023-03-11T14:55:28.414Z,97728.00
2023-03-11T14:57:56.874Z,97731.00
2023-03-11T15:00:27.269Z,97737.81
2023-03-11T15:03:00.875Z,97734.00
2023-03-11T15:05:32.226Z,97730.22
2023-03-11T15:08:01.362Z,97740.00
2023-03-11T15:10:29.314Z,97737.28
2023-03-11T15:13:06.391Z,97750.31
2023-03-11T15:15:35.733Z,97743.19
2023-03-11T15:18:04.491Z,97752.94
2023-03-11T15:20:33.432Z,97756.72
2023-03-11T15:23:02.164Z,97764.84
2023-03-11T15:25:31.633Z,97767.50
2023-03-11T15:27:59.608Z,97777.53
2023-03-11T15:30:28.913Z,97776.94
2023-03-11T15:32:58.381Z,97776.66
2023-03-11T15:35:26.815Z,97789.66
2023-03-11T15:38:13.106Z,97790.78
2023-03-11T15:40:45.666Z,97805.91
2023-03-11T15:43:21.990Z,97807.50
2023-03-11T15:45:50.050Z,97815.06
2023-03-11T15:48:19.421Z,97820.16
2023-03-11T15:50:53.310Z,97824.81
2023-03-11T15:53:22.305Z,97833.41
2023-03-11T15:55:50.260Z,97848.88
2023-03-11T15:58:18.905Z,97843.09
2023-03-11T16:00:48.460Z,97865.28
2023-03-11T16:03:16.740Z,97873.53
2023-03-11T16:05:46.166Z,97868.84
2023-03-11T16:08:14.143Z,97875.81
2023-03-11T16:10:42.558Z,97877.25
2023-03-11T16:13:11.484Z,97887.38
2023-03-11T16:15:39.545Z,97899.72
2023-03-11T16:18:08.855Z,97903.50
2023-03-11T16:20:38.737Z,97915.34
2023-03-11T16:23:08.042Z,97928.66
2023-03-11T16:25:37.438Z,97932.59
2023-03-11T16:28:05.873Z,97945.22
2023-03-11T16:30:34.893Z,97957.06
2023-03-11T16:33:04.837Z,97997.56
2023-03-11T16:35:33.243Z,97992.19
2023-03-11T16:38:01.276Z,98000.59
2023-03-11T16:40:30.822Z,98005.59
2023-03-11T16:43:00.642Z,98014.34
2023-03-11T16:45:28.632Z,98022.28
2023-03-11T16:47:56.620Z,98031.88
2023-03-11T16:50:25.306Z,98037.22
2023-03-11T16:52:53.357Z,98050.72
2023-03-11T16:55:21.270Z,98044.94
2023-03-11T16:57:50.604Z,98063.94
2023-03-11T17:00:19.180Z,98069.81
2023-03-11T17:02:47.149Z,98100.66
2023-03-11T17:05:15.162Z,98109.81
2023-03-11T17:07:43.135Z,98113.31
2023-03-11T17:10:11.945Z,98129.84
2023-03-11T17:12:39.892Z,98116.81
2023-03-11T17:15:10.067Z,98126.06
2023-03-11T17:17:38.016Z,98129.69
2023-03-11T17:20:07.845Z,98135.69
2023-03-11T17:22:35.814Z,98140.47
2023-03-11T17:25:03.811Z,98143.06
2023-03-11T17:27:32.680Z,98151.47
2023-03-11T17:30:01.038Z,98158.25
2023-03-11T17:32:30.409Z,98162.78
2023-03-11T17:34:58.476Z,98165.47
2023-03-11T17:37:26.444Z,98181.97
2023-03-11T17:39:54.779Z,98168.66
2023-03-11T17:42:22.691Z,98177.78
2023-03-11T17:44:52.171Z,98177.78
2023-03-11T17:47:21.405Z,98189.31
2023-03-11T17:49:50.940Z,98205.00
2023-03-11T17:52:18.937Z,98200.53
2023-03-11T17:54:46.898Z,98207.09
2023-03-11T17:57:14.865Z,98210.59
2023-03-11T17:59:42.787Z,98214.44
2023-03-11T18:02:13.653Z,98231.66
2023-03-11T18:04:43.410Z,98243.72
2023-03-11T18:07:12.753Z,98260.81
2023-03-11T18:09:40.654Z,98276.06
2023-03-11T18:12:08.707Z,98269.84
2023-03-11T18:14:37.275Z,98278.91
2023-03-11T18:17:05.416Z,98283.13
2023-03-11T18:19:33.358Z,98281.84
2023-03-11T18:22:01.272Z,98277.25
2023-03-11T18:24:30.603Z,98287.03
2023-03-11T18:26:58.523Z,98289.09
2023-03-11T18:29:26.486Z,98298.56
2023-03-11T18:31:54.497Z,98303.94
2023-03-11T18:34:23.289Z,98314.25
2023-03-11T18:36:51.256Z,98298.31
2023-03-11T18:39:19.335Z,98319.53
2023-03-11T18:41:48.667Z,98319.50
2023-03-11T18:44:16.657Z,98318.22
2023-03-11T18:46:44.629Z,98322.16
2023-03-11T18:49:12.984Z,98328.94
2023-03-11T18:51:41.136Z,98345.66
2023-03-11T18:54:09.159Z,98342.56
2023-03-11T18:56:37.103Z,98339.22
2023-03-11T18:59:07.857Z,98351.16
2023-03-11T19:01:35.852Z,98347.00
2023-03-11T19:04:03.858Z,98354.88
2023-03-11T19:06:31.888Z,98349.06
2023-03-11T19:08:59.911Z,98356.88
2023-03-11T19:11:27.924Z,98373.88
2023-03-11T19:13:56.154Z,98363.97
2023-03-11T19:16:26.300Z,98376.56
2023-03-11T19:18:55.239Z,98370.63
2023-03-11T19:21:23.241Z,98372.22
2023-03-11T19:23:52.892Z,98378.38
2023-03-11T19:26:23.879Z,98381.31
2023-03-11T19:28:55.997Z,98382.78
2023-03-11T19:31:25.353Z,98395.84
2023-03-11T19:33:53.315Z,98392.94
2023-03-11T19:36:21.260Z,98408.25
2023-03-11T19:38:49.192Z,98404.34
2023-03-11T19:41:18.724Z,98410.34
2023-03-11T19:43:46.785Z,98419.44
2023-03-11T19:46:15.890Z,98425.22
2023-03-11T19:48:45.296Z,98419.47
2023-03-11T19:51:13.304Z,98422.38
2023-03-11T19:53:41.846Z,98431.91
2023-03-11T19:56:10.090Z,98438.94
2023-03-11T19:58:38.149Z,98446.38
2023-03-11T20:01:06.121Z,98458.38
2023-03-11T20:03:34.157Z,98458.78
2023-03-11T20:06:06.521Z,98470.31
2023-03-11T20:08:36.795Z,98478.19
2023-03-11T20:11:05.218Z,98485.19
2023-03-11T20:13:33.227Z,98482.72
2023-03-11T20:16:06.296Z,98486.41
2023-03-11T20:18:34.308Z,98481.28
2023-03-11T20:21:07.287Z,98489.28
2023-03-11T20:23:35.403Z,98496.28
2023-03-11T20:26:06.444Z,98496.66
2023-03-11T20:28:34.457Z,98499.09
2023-03-11T20:31:11.612Z,98489.97
2023-03-11T20:33:39.662Z,98498.88
2023-03-11T20:36:10.161Z,98489.56
2023-03-11T20:38:38.166Z,98484.59
2023-03-11T20:41:08.174Z,98497.34
2023-03-11T20:43:36.367Z,98485.38
2023-03-11T20:46:04.531Z,98509.69
2023-03-11T20:48:32.507Z,98495.88
2023-03-11T20:51:01.539Z,98508.22
2023-03-11T20:53:31.522Z,98517.06
2023-03-11T20:55:59.587Z,98519.88
2023-03-11T20:58:27.637Z,98521.13
2023-03-11T21:00:55.604Z,98539.88
2023-03-11T21:03:23.790Z,98549.94
2023-03-11T21:05:51.905Z,98553.63
2023-03-11T21:08:20.125Z,98570.56
2023-03-11T21:10:49.519Z,98561.66
2023-03-11T21:13:17.491Z,98554.84
2023-03-11T21:15:45.483Z,98569.19
2023-03-11T21:18:13.528Z,98564.63
2023-03-11T21:20:41.523Z,98581.69
2023-03-11T21:23:09.843Z,98589.28
2023-03-11T21:25:39.279Z,98589.56
2023-03-11T21:28:08.557Z,98599.41
2023-03-11T21:30:36.578Z,98615.00
2023-03-11T21:33:04.581Z,98626.66
2023-03-11T21:35:32.575Z,98621.31
2023-03-11T21:38:00.782Z,98625.56
2023-03-11T21:40:28.941Z,98645.13
2023-03-11T21:42:56.984Z,98643.28
2023-03-11T21:45:26.521Z,98635.38
2023-03-11T21:47:54.512Z,98635.84
2023-03-11T21:50:22.535Z,98645.34
2023-03-11T21:52:50.624Z,98658.06
2023-03-11T21:55:18.844Z,98653.44
2023-03-11T21:57:46.984Z,98655.13
2023-03-11T22:00:15.517Z,98652.06
2023-03-11T22:02:44.809Z,98651.38
2023-03-11T22:05:13.161Z,98672.13
2023-03-11T22:07:41.302Z,98681.97
2023-03-11T22:10:09.570Z,98673.44
2023-03-11T22:12:37.533Z,98671.50
2023-03-11T22:15:06.268Z,98671.22
2023-03-11T22:17:34.294Z,98680.72
2023-03-11T22:20:05.180Z,98698.06
2023-03-11T22:22:33.314Z,98702.59
2023-03-11T22:25:01.323Z,98689.34
2023-03-11T22:27:29.273Z,98688.50
2023-03-11T22:29:57.189Z,98691.72
2023-03-11T22:32:25.216Z,98699.47
2023-03-11T22:34:53.156Z,98737.91
2023-03-11T22:37:22.503Z,98727.88
2023-03-11T22:39:50.681Z,98709.53
2023-03-11T22:42:18.594Z,98718.84
2023-03-11T22:44:46.525Z,98733.78
2023-03-11T22:47:14.455Z,98744.34
2023-03-11T22:49:42.637Z,98730.56
2023-03-11T22:52:10.720Z,98724.09
2023-03-11T22:54:40.111Z,98734.50
2023-03-11T22:57:08.083Z,98741.50
2023-03-11T22:59:36.040Z,98746.75
2023-03-11T23:02:03.960Z,98745.75
2023-03-11T23:04:31.874Z,98749.16
2023-03-11T23:06:59.853Z,98749.34
2023-03-11T23:09:27.804Z,98758.84
2023-03-11T23:11:57.139Z,98757.53
2023-03-11T23:14:37.858Z,98753.31
2023-03-11T23:17:11.939Z,98754.13
2023-03-11T23:19:39.932Z,98766.84
2023-03-11T23:22:07.910Z,98775.25
2023-03-11T23:24:35.870Z,98759.66
2023-03-11T23:27:05.902Z,98766.31
2023-03-11T23:29:33.819Z,98784.06
2023-03-11T23:32:01.761Z,98782.81
2023-03-11T23:34:29.687Z,98785.19
2023-03-11T23:36:57.632Z,98786.84
2023-03-11T23:39:25.561Z,98774.44
2023-03-11T23:41:53.534Z,98787.78
2023-03-11T23:44:22.842Z,98792.47
2023-03-11T23:46:50.791Z,98802.53
2023-03-11T23:49:18.760Z,98792.41
2023-03-11T23:51:46.757Z,98789.91
2023-03-11T23:54:14.736Z,98795.16
2023-03-11T23:56:42.649Z,98806.69
2023-03-11T23:59:10.639Z,98801.03
